Time;durP1;ratioP1;P1;durP2;ratioP2;P2;SDS_P1;SDS_P2;PMS_P1;PMS_P2;Temp;Humidity;BMP_temperature;BMP_pressure;BME280_temperature;BME280_humidity;BME280_pressure;Samples;Min_cycle;Max_cycle;Signal;HPM_P1;HPM_P2
2022/07/12 00:00:32;;;;;;;4.60;3.83;;;;;;;15.01;88.90;102424.63;5070205;28;20188;-71
2022/07/12 00:02:58;;;;;;;4.00;3.60;;;;;;;14.97;89.23;102431.41;5089028;28;20192;-71
2022/07/12 00:05:23;;;;;;;6.37;4.00;;;;;;;14.98;89.29;102433.19;5088831;28;20199;-71
2022/07/12 00:07:49;;;;;;;4.90;4.40;;;;;;;15.04;89.46;102435.91;5070429;28;20197;-71
2022/07/12 00:10:14;;;;;;;4.27;3.87;;;;;;;15.00;89.80;102435.78;5088333;28;20832;-71
2022/07/12 00:12:40;;;;;;;4.87;4.40;;;;;;;14.99;89.69;102431.44;5088390;28;20188;-71
2022/07/12 00:15:06;;;;;;;4.50;4.00;;;;;;;14.96;90.62;102428.81;5089035;28;20184;-71
2022/07/12 00:17:32;;;;;;;4.60;4.17;;;;;;;15.01;90.22;102427.22;5088726;28;20212;-71
2022/07/12 00:19:57;;;;;;;4.77;4.20;;;;;;;14.95;90.63;102429.63;5087776;28;20192;-71
2022/07/12 00:22:23;;;;;;;4.33;3.93;;;;;;;14.95;90.93;102427.91;5088689;28;20192;-71
2022/07/12 00:24:49;;;;;;;4.70;4.23;;;;;;;14.92;91.28;102430.41;5068519;28;20185;-71
2022/07/12 00:27:14;;;;;;;4.10;3.70;;;;;;;14.87;91.34;102423.41;5070434;28;20194;-71
2022/07/12 00:29:40;;;;;;;4.77;3.77;;;;;;;14.82;91.43;102428.41;5053677;28;20753;-71
2022/07/12 00:32:07;;;;;;;4.20;3.80;;;;;;;14.80;90.74;102429.19;5088824;28;20218;-71
2022/07/12 00:34:33;;;;;;;4.90;4.20;;;;;;;14.77;91.26;102416.22;5070290;28;20200;-71
2022/07/12 00:36:58;;;;;;;4.33;3.93;;;;;;;14.74;90.66;102414.41;5087938;28;20275;-71
2022/07/12 00:39:24;;;;;;;4.43;4.03;;;;;;;14.66;90.84;102412.47;5088397;28;20851;-71
2022/07/12 00:41:50;;;;;;;4.13;3.73;;;;;;;14.66;90.80;102415.06;5088517;28;20193;-71
2022/07/12 00:44:15;;;;;;;4.60;4.20;;;;;;;14.62;91.55;102410.63;5090819;28;20188;-71
2022/07/12 00:46:41;;;;;;;4.90;4.33;;;;;;;14.64;91.28;102415.00;5092066;28;20192;-71
2022/07/12 00:49:07;;;;;;;4.73;4.00;;;;;;;14.66;91.67;102397.88;5091963;28;20207;-71
2022/07/12 00:51:33;;;;;;;4.53;4.13;;;;;;;14.60;91.32;102399.41;5091781;28;20188;-71
2022/07/12 00:53:59;;;;;;;5.97;4.50;;;;;;;14.55;92.14;102396.69;5092045;28;20189;-71
2022/07/12 00:56:25;;;;;;;4.07;3.77;;;;;;;14.54;91.51;102392.38;5091806;28;20275;-71
2022/07/12 00:58:51;;;;;;;4.63;4.17;;;;;;;14.51;92.09;102397.44;5091826;28;20251;-71
2022/07/12 01:01:17;;;;;;;5.53;4.27;;;;;;;14.45;91.42;102402.44;5091984;28;20227;-71
2022/07/12 01:03:42;;;;;;;4.27;3.87;;;;;;;14.43;91.57;102406.69;5092090;28;20216;-71
2022/07/12 01:06:08;;;;;;;4.63;4.10;;;;;;;14.42;91.58;102404.06;5091913;28;20188;-72
2022/07/12 01:08:34;;;;;;;4.20;3.80;;;;;;;14.41;92.10;102402.31;5087433;28;20287;-71
2022/07/12 01:11:01;;;;;;;5.20;4.00;;;;;;;14.37;91.98;102401.31;5072345;28;20549;-71
2022/07/12 01:13:26;;;;;;;4.67;4.27;;;;;;;14.33;91.86;102396.94;5091740;28;20181;-71
2022/07/12 01:15:53;;;;;;;4.03;3.63;;;;;;;14.27;91.47;102404.47;5091528;28;20218;-71
2022/07/12 01:18:19;;;;;;;4.40;3.90;;;;;;;14.24;91.29;102403.50;5091259;28;20593;-71
2022/07/12 01:20:45;;;;;;;4.23;3.70;;;;;;;14.20;90.98;102409.38;5091718;28;20305;-71
2022/07/12 01:23:12;;;;;;;6.60;4.00;;;;;;;14.16;90.56;102410.09;5090829;28;20279;-71
2022/07/12 01:25:38;;;;;;;4.90;4.20;;;;;;;14.12;90.36;102404.00;5091799;28;20188;-71
2022/07/12 01:28:04;;;;;;;3.87;3.43;;;;;;;14.11;89.96;102411.66;5091412;28;20354;-71
2022/07/12 01:30:29;;;;;;;4.47;3.43;;;;;;;14.04;90.27;102415.75;5091846;28;20267;-71
2022/07/12 01:32:56;;;;;;;3.93;3.50;;;;;;;13.99;90.00;102412.16;5100611;28;20697;-71
2022/07/12 01:35:22;;;;;;;5.30;3.93;;;;;;;13.97;90.47;102406.09;5104807;28;20191;-72
2022/07/12 01:37:48;;;;;;;5.53;3.83;;;;;;;13.98;90.25;102406.97;5111648;28;20248;-71
2022/07/12 01:40:15;;;;;;;4.10;3.70;;;;;;;13.98;90.19;102402.69;5103795;28;20738;-71
2022/07/12 01:42:43;;;;;;;4.60;4.20;;;;;;;13.92;91.11;102409.34;5091429;28;20176;-71
2022/07/12 01:45:09;;;;;;;4.70;4.30;;;;;;;13.94;90.97;102405.13;5091319;28;20185;-71
2022/07/12 01:47:35;;;;;;;4.93;4.20;;;;;;;13.89;90.88;102409.25;5090965;28;20202;-71
2022/07/12 01:50:02;;;;;;;5.27;4.20;;;;;;;13.90;90.67;102409.31;5073024;28;20826;-71
2022/07/12 01:52:28;;;;;;;4.63;4.20;;;;;;;13.87;90.83;102405.78;5091100;28;20271;-71
2022/07/12 01:54:54;;;;;;;4.30;3.90;;;;;;;13.83;90.70;102402.22;5090686;28;20188;-71
2022/07/12 01:57:21;;;;;;;4.93;3.87;;;;;;;13.83;91.13;102399.66;5090649;28;20231;-71
2022/07/12 01:59:46;;;;;;;5.27;4.77;;;;;;;13.84;91.46;102397.94;5091036;28;20702;-71
2022/07/12 02:02:12;;;;;;;5.00;4.23;;;;;;;13.83;91.86;102398.78;5091030;28;20211;-71
2022/07/12 02:04:37;;;;;;;5.10;4.10;;;;;;;13.82;92.35;102399.59;5072730;28;20878;-71
2022/07/12 02:07:04;;;;;;;4.60;3.77;;;;;;;13.80;91.73;102391.81;5090446;28;20168;-71
2022/07/12 02:09:30;;;;;;;3.60;3.30;;;;;;;13.68;91.65;102391.44;5090830;28;20176;-71
2022/07/12 02:11:55;;;;;;;3.60;3.30;;;;;;;13.60;91.41;102395.47;5090777;28;20194;-71
2022/07/12 02:14:21;;;;;;;4.67;3.60;;;;;;;13.55;90.30;102398.72;5090767;28;20658;-71
2022/07/12 02:16:46;;;;;;;3.87;3.43;;;;;;;13.49;90.66;102396.81;5072076;28;20284;-71
2022/07/12 02:19:13;;;;;;;3.63;3.33;;;;;;;13.48;90.78;102399.38;5098835;28;20307;-71
2022/07/12 02:21:39;;;;;;;3.90;3.20;;;;;;;13.33;90.19;102399.72;5090514;28;20283;-71
2022/07/12 02:24:05;;;;;;;3.57;3.27;;;;;;;13.30;89.84;102394.47;5106112;28;20191;-71
2022/07/12 02:26:36;;;;;;;3.73;3.43;;;;;;;13.26;90.20;102402.06;5090192;28;20194;-71
2022/07/12 02:29:06;;;;;;;5.07;3.53;;;;;;;13.33;90.47;102406.56;5090432;28;20204;-71
2022/07/12 02:31:32;;;;;;;3.80;3.50;;;;;;;13.21;89.79;102409.59;5090550;28;20186;-71
2022/07/12 02:33:58;;;;;;;6.20;4.00;;;;;;;13.23;89.98;102417.38;5090563;28;20233;-71
2022/07/12 02:36:24;;;;;;;4.67;4.23;;;;;;;13.21;90.54;102421.59;5090152;28;20603;-71
2022/07/12 02:38:49;;;;;;;7.07;5.03;;;;;;;13.17;90.88;102428.31;5090198;28;20251;-71
2022/07/12 02:41:15;;;;;;;4.83;4.43;;;;;;;13.21;91.31;102429.31;5090308;28;20216;-71
2022/07/12 02:43:40;;;;;;;7.30;6.10;;;;;;;13.31;92.76;102424.50;5072189;28;20337;-71
2022/07/12 02:46:09;;;;;;;6.47;5.67;;;;;;;13.36;93.44;102430.72;5090268;28;20277;-71
2022/07/12 02:48:36;;;;;;;6.23;5.30;;;;;;;13.36;94.16;102429.84;5090107;28;20223;-71
2022/07/12 02:51:03;;;;;;;6.83;5.63;;;;;;;13.32;94.10;102427.97;5090278;28;20220;-71
2022/07/12 02:53:30;;;;;;;7.77;5.97;;;;;;;13.28;94.35;102434.72;5090110;28;20678;-71
2022/07/12 02:55:55;;;;;;;9.47;6.03;;;;;;;13.26;94.41;102438.94;5071821;28;20196;-71
2022/07/12 02:58:21;;;;;;;6.70;5.80;;;;;;;13.30;94.15;102443.34;5089698;28;20222;-71
2022/07/12 03:00:47;;;;;;;8.23;6.13;;;;;;;13.35;94.53;102452.09;5090028;28;20177;-71
2022/07/12 03:03:14;;;;;;;8.37;6.10;;;;;;;13.37;95.23;102452.16;5089938;28;20187;-71
2022/07/12 03:05:40;;;;;;;7.30;6.47;;;;;;;13.32;94.89;102464.00;5089184;28;20181;-71
2022/07/12 03:08:07;;;;;;;8.20;5.87;;;;;;;13.30;95.48;102463.94;5089475;28;20202;-71
2022/07/12 03:10:33;;;;;;;8.33;6.17;;;;;;;13.28;95.46;102468.16;5089754;28;20245;-71
2022/07/12 03:12:59;;;;;;;8.20;5.70;;;;;;;13.25;95.27;102474.91;5089779;28;20271;-71
2022/07/12 03:15:24;;;;;;;7.50;5.77;;;;;;;13.28;95.31;102477.56;5089619;28;20286;-71
2022/07/12 03:17:50;;;;;;;6.90;6.20;;;;;;;13.25;95.46;102475.78;5097642;28;20204;-71
2022/07/12 03:20:15;;;;;;;8.23;6.00;;;;;;;13.26;95.62;102484.38;5091808;28;20297;-73
2022/07/12 03:22:42;;;;;;;7.47;5.87;;;;;;;13.26;94.92;102482.66;5109960;28;20188;-73
2022/07/12 03:25:08;;;;;;;7.47;5.90;;;;;;;13.26;95.17;102494.66;5100121;28;20233;-72
2022/07/12 03:27:34;;;;;;;6.50;5.43;;;;;;;13.24;95.26;102493.72;5109614;28;20199;-73
2022/07/12 03:29:59;;;;;;;6.83;5.60;;;;;;;13.19;95.14;102496.16;5109921;28;20826;-75
2022/07/12 03:32:25;;;;;;;7.00;5.53;;;;;;;13.21;94.93;102496.22;5109864;28;20183;-73
2022/07/12 03:34:50;;;;;;;7.00;5.50;;;;;;;13.26;95.08;102504.97;5109785;28;20190;-73
2022/07/12 03:37:16;;;;;;;7.70;6.27;;;;;;;13.32;95.77;102503.47;5109563;28;20176;-72
2022/07/12 03:39:41;;;;;;;7.57;6.10;;;;;;;13.34;96.05;102498.34;5091470;28;20211;-73
2022/07/12 03:42:07;;;;;;;6.50;5.83;;;;;;;13.35;96.15;102493.28;5109833;28;20187;-73
2022/07/12 03:44:33;;;;;;;7.67;5.57;;;;;;;13.34;96.28;102499.25;5109834;28;20183;-74
2022/07/12 03:46:59;;;;;;;8.30;6.37;;;;;;;13.35;96.78;102502.72;5109602;28;20248;-73
2022/07/12 03:49:25;;;;;;;7.63;6.87;;;;;;;13.40;96.70;102503.75;5091161;28;20210;-74
2022/07/12 03:51:50;;;;;;;8.13;6.47;;;;;;;13.42;96.75;102502.97;5109709;28;20183;-74
2022/07/12 03:54:16;;;;;;;8.27;6.47;;;;;;;13.46;97.24;102507.41;5070613;28;20349;-72
2022/07/12 03:59:25;;;;;;;9.10;6.30;;;;;;;13.54;97.43;102512.81;5072109;28;20933;-72
2022/07/12 04:01:51;;;;;;;7.57;6.77;;;;;;;13.56;97.16;102519.75;5034640;28;20200;-72
2022/07/12 04:04:16;;;;;;;9.93;6.93;;;;;;;13.61;96.96;102518.22;5038707;28;20180;-72
2022/07/12 04:06:41;;;;;;;8.80;6.90;;;;;;;13.67;96.96;102512.41;5050046;28;21015;-72
2022/07/12 04:09:07;;;;;;;8.10;6.93;;;;;;;13.68;97.34;102515.00;5057174;28;20586;-71
2022/07/12 04:11:33;;;;;;;8.33;7.20;;;;;;;13.73;97.39;102520.31;5075800;28;20260;-74
2022/07/12 04:13:59;;;;;;;9.67;7.00;;;;;;;13.77;97.27;102523.03;5051148;28;20189;-73
2022/07/12 04:16:26;;;;;;;8.70;7.27;;;;;;;13.79;97.68;102515.38;5079988;28;20194;-73
2022/07/12 04:18:51;;;;;;;10.27;7.47;;;;;;;13.80;97.15;102524.84;5101989;28;20247;-73
2022/07/12 04:21:16;;;;;;;9.20;7.27;;;;;;;13.83;97.56;102515.53;5101285;28;20269;-72
2022/07/12 04:23:42;;;;;;;8.17;6.60;;;;;;;13.87;97.15;102511.34;5092867;28;20188;-74
2022/07/12 04:26:07;;;;;;;8.83;7.53;;;;;;;13.90;97.21;102508.88;5092917;28;20219;-73
2022/07/12 04:28:35;;;;;;;8.80;6.87;;;;;;;13.93;96.92;102508.97;5092618;28;20211;-73
2022/07/12 04:31:01;;;;;;;9.27;6.90;;;;;;;13.94;96.38;102516.75;5092853;28;20184;-72
2022/07/12 04:33:26;;;;;;;8.53;7.30;;;;;;;14.00;96.27;102521.22;5092748;28;20175;-73
2022/07/12 04:35:52;;;;;;;10.47;7.43;;;;;;;14.05;96.08;102523.09;5077111;28;20181;-73
2022/07/12 04:38:17;;;;;;;10.07;6.80;;;;;;;14.12;95.89;102516.47;5092195;28;20307;-73
2022/07/12 04:40:42;;;;;;;8.77;7.43;;;;;;;14.17;95.88;102520.06;5092543;28;20180;-73
2022/07/12 04:43:08;;;;;;;10.40;7.37;;;;;;;14.20;95.24;102518.50;5092567;28;20606;-73
2022/07/12 04:45:33;;;;;;;8.77;6.83;;;;;;;14.26;95.17;102516.09;5074243;28;20223;-73
2022/07/12 04:47:59;;;;;;;9.13;7.33;;;;;;;14.35;94.87;102511.25;5092103;28;20201;-73
2022/07/12 04:50:25;;;;;;;10.17;7.17;;;;;;;14.41;94.97;102500.25;5092458;28;20180;-73
2022/07/12 04:52:50;;;;;;;8.60;7.20;;;;;;;14.48;94.67;102491.88;5092426;28;20210;-73
2022/07/12 04:55:15;;;;;;;9.43;7.47;;;;;;;14.43;94.87;102498.59;5092345;28;20295;-73
2022/07/12 04:57:41;;;;;;;9.07;7.40;;;;;;;14.39;95.14;102501.88;5091862;28;20212;-73
2022/07/12 05:00:07;;;;;;;11.37;7.17;;;;;;;14.37;94.85;102512.16;5092643;28;20412;-72
2022/07/12 05:02:33;;;;;;;10.93;7.53;;;;;;;14.36;94.94;102515.56;5092270;28;20176;-74
2022/07/12 05:04:59;;;;;;;10.93;7.53;;;;;;;14.35;95.35;102508.66;5091111;28;20581;-73
2022/07/12 05:07:25;;;;;;;10.07;7.53;;;;;;;14.37;94.97;102512.16;5073674;28;20205;-73
2022/07/12 05:09:51;;;;;;;10.30;7.83;;;;;;;14.39;95.27;102504.47;5092007;28;20857;-74
2022/07/12 05:12:19;;;;;;;8.43;7.13;;;;;;;14.40;95.37;102501.94;5091983;28;20189;-73
2022/07/12 05:14:45;;;;;;;11.07;7.93;;;;;;;14.43;95.39;102508.91;5091893;28;20172;-74
2022/07/12 05:17:10;;;;;;;10.73;7.70;;;;;;;14.46;94.94;102511.56;5076081;28;20583;-73
2022/07/12 05:19:39;;;;;;;8.90;6.67;;;;;;;14.50;95.14;102510.84;5097116;28;20304;-74
2022/07/12 05:22:04;;;;;;;9.73;7.47;;;;;;;14.54;94.63;102510.97;5095236;28;20770;-74
2022/07/12 05:24:30;;;;;;;9.43;7.40;;;;;;;14.65;94.41;102516.44;5073842;28;20208;-74
2022/07/12 05:26:56;;;;;;;10.13;7.53;;;;;;;14.83;94.67;102512.69;5091642;28;20694;-74
2022/07/12 05:29:21;;;;;;;8.73;6.33;;;;;;;14.85;93.84;102520.47;5072874;28;20219;-74
2022/07/12 05:31:47;;;;;;;8.57;6.67;;;;;;;14.86;93.55;102530.84;5091603;28;20199;-73
2022/07/12 05:34:13;;;;;;;10.60;7.13;;;;;;;14.91;93.80;102533.56;5091608;28;20184;-74
2022/07/12 05:36:39;;;;;;;9.23;6.73;;;;;;;14.99;93.42;102535.53;5073139;28;20234;-74
2022/07/12 05:39:05;;;;;;;8.63;7.10;;;;;;;15.21;93.19;102534.44;5091265;28;20233;-73
2022/07/12 05:41:31;;;;;;;9.53;6.70;;;;;;;15.32;92.23;102528.72;5091495;28;20188;-73
2022/07/12 05:43:56;;;;;;;8.43;6.70;;;;;;;15.46;91.66;102526.53;5091398;28;20180;-73
2022/07/12 05:46:21;;;;;;;10.67;7.43;;;;;;;15.58;91.86;102532.91;5091129;28;20612;-74
2022/07/12 05:48:48;;;;;;;9.40;7.10;;;;;;;15.67;91.43;102521.94;5091224;28;20205;-74
2022/07/12 05:53:58;;;;;;;10.00;7.17;;;;;;;15.76;90.82;102523.06;5092042;28;20231;-73
2022/07/12 05:56:23;;;;;;;9.40;6.87;;;;;;;15.87;90.96;102520.72;5093889;28;20305;-73
2022/07/12 05:58:49;;;;;;;7.37;6.57;;;;;;;16.05;90.11;102534.09;5073857;28;20545;-72
2022/07/12 06:01:14;;;;;;;9.40;6.73;;;;;;;16.22;90.02;102536.28;5090345;28;20188;-72
2022/07/12 06:03:40;;;;;;;6.43;5.67;;;;;;;16.37;88.68;102538.31;5090227;28;20177;-74
2022/07/12 06:06:05;;;;;;;7.53;5.67;;;;;;;16.55;88.31;102533.59;5059961;28;20584;-71
2022/07/12 06:08:31;;;;;;;7.27;6.27;;;;;;;16.73;87.21;102529.72;5105490;28;20203;-72
2022/07/12 06:10:56;;;;;;;7.73;6.93;;;;;;;16.83;86.60;102535.94;5105198;28;20607;-72
2022/07/12 06:13:22;;;;;;;7.57;6.63;;;;;;;16.96;85.81;102523.31;5090559;28;20216;-72
2022/07/12 06:15:47;;;;;;;7.03;5.77;;;;;;;17.08;85.03;102522.69;5075054;28;20284;-71
2022/07/12 06:18:13;;;;;;;6.60;5.60;;;;;;;17.22;85.16;102527.25;5077957;28;20298;-72
2022/07/12 06:20:38;;;;;;;8.83;7.00;;;;;;;17.47;84.09;102528.63;5097786;28;20613;-73
2022/07/12 06:23:04;;;;;;;6.20;5.60;;;;;;;17.67;82.80;102522.06;5091736;28;20187;-72
2022/07/12 06:25:29;;;;;;;12.20;10.17;;;;;;;17.89;80.49;102514.72;4977874;28;20232;-72
2022/07/12 06:27:55;;;;;;;11.43;8.50;;;;;;;18.08;80.64;102514.16;5060396;28;20232;-73
2022/07/12 06:30:21;;;;;;;8.50;7.70;;;;;;;18.37;79.38;102510.28;5090230;28;20267;-74
2022/07/12 06:32:48;;;;;;;8.33;7.40;;;;;;;18.48;79.15;102513.94;5072043;28;20189;-74
2022/07/12 06:35:14;;;;;;;8.77;7.00;;;;;;;18.19;79.11;102522.09;5090044;28;20196;-74
2022/07/12 06:37:41;;;;;;;7.60;6.87;;;;;;;18.04;79.49;102520.13;5089903;28;20299;-73
2022/07/12 06:40:07;;;;;;;8.40;7.50;;;;;;;18.05;80.19;102529.66;5089994;28;20678;-73
2022/07/12 06:42:33;;;;;;;10.73;6.70;;;;;;;18.07;79.70;102527.09;5072105;28;20186;-74
2022/07/12 06:44:58;;;;;;;7.43;6.63;;;;;;;18.21;79.36;102529.06;5061657;28;20196;-72
2022/07/12 06:47:24;;;;;;;7.93;6.40;;;;;;;18.38;78.74;102529.34;5105426;28;20208;-73
2022/07/12 06:49:49;;;;;;;8.07;5.23;;;;;;;18.46;77.39;102527.72;5090222;28;20575;-72
2022/07/12 06:52:15;;;;;;;5.37;4.67;;;;;;;18.65;76.78;102522.81;5092953;28;20295;-74
2022/07/12 06:54:41;;;;;;;4.93;4.43;;;;;;;18.70;76.40;102517.69;5110379;28;20549;-73
2022/07/12 06:57:06;;;;;;;5.27;4.37;;;;;;;18.82;76.17;102518.72;5110022;28;20188;-73
2022/07/12 06:59:32;;;;;;;4.83;4.33;;;;;;;18.98;75.29;102507.66;5096386;28;20212;-73
2022/07/12 07:01:57;;;;;;;4.87;4.20;;;;;;;19.19;73.96;102510.50;5089625;28;20214;-74
2022/07/12 07:04:24;;;;;;;4.23;3.83;;;;;;;19.31;73.29;102509.78;5083258;28;20937;-76
2022/07/12 07:06:50;;;;;;;4.73;4.20;;;;;;;19.19;73.33;102507.03;5089496;28;20185;-74
2022/07/12 07:09:15;;;;;;;4.30;3.60;;;;;;;19.27;74.11;102506.31;5084763;28;20200;-73
2022/07/12 07:11:41;;;;;;;3.43;3.13;;;;;;;19.52;73.20;102507.38;5089500;28;20196;-74
2022/07/12 07:14:07;;;;;;;3.90;3.53;;;;;;;19.53;72.40;102506.56;5088819;28;20222;-73
2022/07/12 07:16:32;;;;;;;3.40;3.10;;;;;;;19.77;70.81;102510.22;5071150;28;20227;-74
2022/07/12 07:18:58;;;;;;;5.23;3.27;;;;;;;19.90;70.44;102506.03;5089198;28;20579;-72
2022/07/12 07:21:24;;;;;;;3.00;2.70;;;;;;;19.82;70.57;102507.69;5071482;28;20261;-73
2022/07/12 07:23:54;;;;;;;3.73;2.77;;;;;;;19.39;71.64;102513.34;5089146;28;20200;-73
2022/07/12 07:26:21;;;;;;;4.70;3.43;;;;;;;19.59;72.33;102514.41;5089069;28;20195;-73
2022/07/12 07:31:36;;;;;;;2.80;2.60;;;;;;;19.68;71.11;102512.78;5088336;28;20173;-72
2022/07/12 07:34:03;;;;;;;2.97;2.67;;;;;;;19.62;70.80;102507.50;5088899;28;20172;-72
2022/07/12 07:36:28;;;;;;;3.53;2.80;;;;;;;19.78;70.73;102511.13;5070923;28;20311;-72
2022/07/12 07:38:54;;;;;;;2.73;2.43;;;;;;;19.73;70.84;102508.50;5089150;28;20226;-72
2022/07/12 07:41:19;;;;;;;2.43;2.23;;;;;;;19.99;69.73;102506.94;5071079;28;20200;-72
2022/07/12 07:43:46;;;;;;;4.50;2.40;;;;;;;20.16;69.81;102500.19;5082455;28;20675;-72
2022/07/12 07:46:11;;;;;;;2.70;2.10;;;;;;;20.35;68.31;102493.34;5097752;28;20187;-72
2022/07/12 07:48:37;;;;;;;2.60;2.20;;;;;;;20.32;68.32;102495.94;5085329;28;20200;-73
2022/07/12 07:51:02;;;;;;;2.80;2.17;;;;;;;20.46;67.01;102494.28;5089038;28;20677;-72
2022/07/12 07:53:28;;;;;;;2.77;2.03;;;;;;;20.60;67.09;102492.63;5083612;28;20235;-72
2022/07/12 07:55:53;;;;;;;2.97;2.10;;;;;;;20.60;67.08;102493.50;5093473;28;20686;-72
2022/07/12 07:58:20;;;;;;;2.60;2.40;;;;;;;20.18;68.04;102490.63;5095572;28;20253;-72
2022/07/12 08:00:46;;;;;;;4.10;2.37;;;;;;;20.15;68.15;102497.56;5072704;28;20192;-72
2022/07/12 08:03:12;;;;;;;3.47;2.00;;;;;;;20.10;67.66;102494.94;5073109;28;20678;-72
2022/07/12 08:05:38;;;;;;;3.43;2.30;;;;;;;20.28;67.98;102502.88;5072845;28;20197;-72
2022/07/12 08:08:03;;;;;;;3.37;2.63;;;;;;;20.40;67.63;102517.69;5071837;28;20216;-72
2022/07/12 08:10:29;;;;;;;2.20;1.90;;;;;;;20.48;67.76;102514.28;5074541;28;20238;-71
2022/07/12 08:12:55;;;;;;;2.53;2.33;;;;;;;20.67;66.75;102515.22;5088550;28;20660;-72
2022/07/12 08:15:20;;;;;;;3.33;2.20;;;;;;;21.00;65.48;102518.88;5072524;28;20215;-72
2022/07/12 08:17:45;;;;;;;2.43;1.80;;;;;;;20.98;64.94;102519.75;5072465;28;20308;-72
2022/07/12 08:20:11;;;;;;;2.33;1.70;;;;;;;21.39;64.18;102524.22;5072321;28;20307;-72
2022/07/12 08:22:43;;;;;;;2.37;2.20;;;;;;;20.53;66.04;102524.69;5072440;28;20225;-72
2022/07/12 08:25:08;;;;;;;3.87;1.87;;;;;;;20.83;64.29;102517.91;5087549;28;20188;-72
2022/07/12 08:27:34;;;;;;;2.73;2.20;;;;;;;21.06;64.09;102518.03;5092792;28;20292;-73
2022/07/12 08:29:59;;;;;;;2.33;1.80;;;;;;;21.26;63.63;102514.63;5074306;28;20572;-72
2022/07/12 08:32:25;;;;;;;3.97;2.03;;;;;;;21.23;64.16;102509.41;5074273;28;20180;-72
2022/07/12 08:34:50;;;;;;;3.03;2.10;;;;;;;21.28;64.42;102512.03;5092539;28;20677;-72
2022/07/12 08:37:15;;;;;;;2.00;1.80;;;;;;;21.50;63.10;102509.47;5092274;28;20181;-73
2022/07/12 08:39:41;;;;;;;2.03;1.93;;;;;;;21.71;62.12;102500.81;5092450;28;20203;-74
2022/07/12 08:42:07;;;;;;;2.00;1.80;;;;;;;21.84;62.24;102510.41;5080394;28;20234;-72
2022/07/12 08:44:33;;;;;;;2.27;2.03;;;;;;;21.70;63.09;102507.75;5092952;28;20192;-72
2022/07/12 08:46:58;;;;;;;3.07;2.10;;;;;;;21.92;62.58;102509.50;5112542;28;20183;-72
2022/07/12 08:49:24;;;;;;;2.47;2.23;;;;;;;22.03;61.95;102512.97;5112510;28;20573;-72
2022/07/12 08:51:49;;;;;;;2.47;1.80;;;;;;;21.96;60.82;102510.38;5068612;28;20612;-72
2022/07/12 08:54:17;;;;;;;2.00;1.77;;;;;;;21.91;61.45;102507.78;5063412;28;20329;-73
2022/07/12 08:56:44;;;;;;;3.13;2.03;;;;;;;21.98;61.53;102501.66;5052908;28;20193;-72
2022/07/12 08:59:17;;;;;;;2.53;1.90;;;;;;;21.99;61.73;102500.81;5092648;28;20207;-72
2022/07/12 09:01:42;;;;;;;2.10;1.87;;;;;;;21.87;62.37;102511.25;5112269;28;20182;-72
2022/07/12 09:04:14;;;;;;;2.10;1.93;;;;;;;21.97;61.61;102502.56;5110944;28;20180;-72
2022/07/12 09:06:40;;;;;;;2.40;2.03;;;;;;;21.97;61.70;102501.69;5112081;28;20194;-74
2022/07/12 09:09:08;;;;;;;3.20;1.90;;;;;;;22.10;60.87;102498.19;5112311;28;20200;-74
2022/07/12 09:11:35;;;;;;;2.37;1.90;;;;;;;21.74;61.97;102501.69;5101213;28;20196;-73
2022/07/12 09:14:02;;;;;;;3.60;2.00;;;;;;;22.00;62.30;102491.25;5074097;28;20194;-74
2022/07/12 09:16:28;;;;;;;2.23;1.90;;;;;;;22.50;60.00;102496.38;5091771;28;20196;-75
2022/07/12 09:19:19;;;;;;;3.67;2.33;;;;;;;22.55;60.43;102497.28;5073551;28;20749;-75
2022/07/12 09:21:50;;;;;;;4.30;2.07;;;;;;;22.33;59.79;102495.56;5073131;28;20191;-74
2022/07/12 09:24:16;;;;;;;3.80;1.90;;;;;;;22.86;59.41;102488.41;5098777;28;20195;-74
2022/07/12 09:26:43;;;;;;;2.90;2.30;;;;;;;22.99;59.67;102496.22;5096107;28;20208;-75
2022/07/12 09:29:10;;;;;;;2.20;2.00;;;;;;;23.05;58.02;102497.91;5073068;28;20211;-75
2022/07/12 09:37:17;;;;;;;2.40;1.83;;;;;;;23.15;57.91;102497.84;5070743;28;20548;-76
2022/07/12 09:39:43;;;;;;;2.33;2.10;;;;;;;22.23;59.95;102494.69;5070979;28;20232;-76
2022/07/12 09:42:12;;;;;;;2.33;2.13;;;;;;;22.88;59.24;102492.75;5071018;28;20177;-74
2022/07/12 09:44:39;;;;;;;2.30;2.10;;;;;;;23.35;57.92;102489.94;5073556;28;20835;-74
2022/07/12 09:47:09;;;;;;;3.15;1.88;;;;;;;23.72;56.67;102491.41;5111337;28;20183;-74
2022/07/12 09:49:35;;;;;;;4.80;2.15;;;;;;;23.99;56.10;102493.81;5093100;28;20172;-73
2022/07/12 09:52:03;;;;;;;4.22;2.10;;;;;;;24.17;56.09;102485.78;5111344;28;20541;-72
2022/07/12 09:54:31;;;;;;;3.03;2.13;;;;;;;24.17;55.40;102486.63;5083153;28;20293;-73
2022/07/12 09:56:59;;;;;;;2.28;2.08;;;;;;;24.72;54.18;102493.03;5100382;28;20183;-73
2022/07/12 09:59:28;;;;;;;5.57;2.10;;;;;;;24.72;54.34;102486.94;5103297;28;20208;-72
2022/07/12 10:01:56;;;;;;;2.38;2.17;;;;;;;24.59;53.19;102488.81;5091082;28;20191;-73
2022/07/12 10:04:22;;;;;;;2.00;1.80;;;;;;;24.44;54.46;102493.34;5072888;28;20188;-73
2022/07/12 10:06:48;;;;;;;5.20;2.38;;;;;;;24.42;54.99;102485.50;5091067;28;20212;-73
2022/07/12 10:09:17;;;;;;;2.22;1.70;;;;;;;24.85;52.85;102484.13;5071977;28;20291;-73
2022/07/12 10:11:43;;;;;;;3.05;1.88;;;;;;;24.95;52.96;102477.88;5072192;28;20227;-73
2022/07/12 10:14:12;;;;;;;4.05;2.03;;;;;;;24.74;53.77;102479.91;5072711;28;20220;-73
2022/07/12 10:16:42;;;;;;;3.03;1.80;;;;;;;24.68;53.61;102474.75;5090203;28;20191;-73
2022/07/12 10:19:35;;;;;;;4.18;2.10;;;;;;;25.14;52.37;102468.84;5072661;28;20224;-73
2022/07/12 10:22:02;;;;;;;1.90;1.67;;;;;;;25.71;51.86;102464.50;5091173;28;20193;-73
2022/07/12 10:24:30;;;;;;;3.05;1.83;;;;;;;25.50;51.49;102467.50;5090771;28;20188;-73
2022/07/12 10:26:56;;;;;;;2.83;2.10;;;;;;;24.78;53.16;102471.13;5090670;28;20179;-73
2022/07/12 10:29:22;;;;;;;2.08;1.77;;;;;;;24.76;53.71;102471.13;5090893;28;20666;-73
2022/07/12 10:31:48;;;;;;;2.72;1.73;;;;;;;25.05;52.69;102468.13;5091125;28;20192;-74
2022/07/12 10:34:24;;;;;;;4.78;1.92;;;;;;;25.45;50.98;102464.91;5091018;28;20245;-74
2022/07/12 10:36:55;;;;;;;2.08;1.80;;;;;;;25.18;53.42;102462.69;5090713;28;20184;-74
2022/07/12 10:39:27;;;;;;;3.60;1.90;;;;;;;25.72;51.49;102460.97;5090434;28;20212;-73
2022/07/12 10:42:05;;;;;;;2.80;1.58;;;;;;;25.67;51.52;102455.81;5090509;28;20179;-74
2022/07/12 10:44:39;;;;;;;1.95;1.77;;;;;;;25.27;50.92;102456.47;5086354;28;20188;-73
2022/07/12 10:47:07;;;;;;;2.33;1.90;;;;;;;25.06;49.99;102464.63;5072256;28;20196;-74
2022/07/12 10:49:34;;;;;;;1.77;1.40;;;;;;;24.97;50.70;102465.63;5105974;28;20180;-73
2022/07/12 10:52:11;;;;;;;1.80;1.70;;;;;;;25.17;50.74;102455.69;5078933;28;20249;-72
2022/07/12 10:54:50;;;;;;;3.53;2.17;;;;;;;24.91;51.60;102464.84;5086443;28;20763;-71
2022/07/12 10:57:36;;;;;;;5.65;2.10;;;;;;;25.60;49.90;102456.78;5057025;28;20231;-71
2022/07/12 11:00:03;;;;;;;1.50;1.40;;;;;;;25.71;49.29;102449.63;5039078;28;20224;-71
2022/07/12 11:02:30;;;;;;;2.25;2.05;;;;;;;25.85;49.90;102458.13;5057742;28;20172;-71
2022/07/12 11:04:56;;;;;;;2.67;1.52;;;;;;;26.34;49.81;102443.19;5078646;28;20188;-72
2022/07/12 11:07:23;;;;;;;1.77;1.48;;;;;;;26.43;49.14;102448.25;5069328;28;20242;-72
2022/07/12 11:09:52;;;;;;;1.65;1.55;;;;;;;26.60;47.55;102442.69;5071094;28;20768;-72
2022/07/12 11:12:17;;;;;;;2.85;1.80;;;;;;;26.60;48.48;102447.94;5095540;28;20642;-72
2022/07/12 11:14:45;;;;;;;2.50;2.08;;;;;;;26.43;48.56;102437.75;5089576;28;20198;-72
2022/07/12 11:17:10;;;;;;;3.83;1.77;;;;;;;26.78;46.62;102437.03;5088629;28;20184;-72
2022/07/12 11:19:36;;;;;;;2.97;1.85;;;;;;;26.67;46.44;102436.41;5088305;28;20582;-73
2022/07/12 11:22:01;;;;;;;2.15;1.60;;;;;;;27.00;46.92;102426.03;5089080;28;20742;-71
2022/07/12 11:24:29;;;;;;;1.77;1.67;;;;;;;27.11;45.93;102429.25;5070580;28;20188;-72
2022/07/12 11:26:55;;;;;;;2.65;1.98;;;;;;;26.72;46.27;102424.91;5087880;28;20267;-73
2022/07/12 11:29:21;;;;;;;2.00;1.90;;;;;;;26.30;48.46;102431.00;5089001;28;20330;-72
2022/07/12 11:31:47;;;;;;;2.60;1.73;;;;;;;26.77;47.75;102425.69;5089075;28;20192;-72
2022/07/12 11:34:23;;;;;;;2.35;1.60;;;;;;;27.16;46.25;102419.50;5089127;28;20219;-72